Time;durP1;ratioP1;P1;durP2;ratioP2;P2;SDS_P1;SDS_P2;PMS_P1;PMS_P2;Temp;Humidity;BMP_temperature;BMP_pressure;BME280_temperature;BME280_humidity;BME280_pressure;Samples;Min_cycle;Max_cycle;Signal;HPM_P1;HPM_P2
2024/01/16 04:03:04;;;;;;;2.92;1.50;;;21.40;23.80;;;;;;4916609;28;46054;-84
2024/01/16 04:05:30;;;;;;;2.43;1.50;;;21.40;23.80;;;;;;4918711;28;44924;-84
2024/01/16 04:07:57;;;;;;;2.83;1.40;;;21.40;23.80;;;;;;4938578;28;45400;-84
2024/01/16 04:10:23;;;;;;;2.95;1.70;;;21.40;23.80;;;;;;4939279;28;46134;-83
2024/01/16 04:12:49;;;;;;;2.33;1.38;;;21.50;23.80;;;;;;4941141;28;44784;-84
2024/01/16 04:15:15;;;;;;;2.60;1.80;;;21.50;23.80;;;;;;4931277;28;45793;-83
2024/01/16 04:17:40;;;;;;;2.33;1.70;;;21.50;23.80;;;;;;4948478;28;45607;-84
2024/01/16 04:20:07;;;;;;;3.25;1.80;;;21.60;23.80;;;;;;4934906;28;45868;-85
2024/01/16 04:22:32;;;;;;;3.07;1.90;;;21.50;23.70;;;;;;4955101;28;44664;-85
2024/01/16 04:24:59;;;;;;;2.00;1.30;;;21.60;23.70;;;;;;4926926;28;44889;-84
2024/01/16 04:27:25;;;;;;;3.70;1.80;;;21.60;23.70;;;;;;4931417;28;44843;-84
2024/01/16 04:29:51;;;;;;;1.95;1.50;;;21.60;23.60;;;;;;4953116;28;45473;-85
2024/01/16 04:32:18;;;;;;;2.42;1.60;;;21.60;23.60;;;;;;4928771;28;45229;-84
2024/01/16 04:34:44;;;;;;;2.58;1.52;;;21.60;23.60;;;;;;4949670;28;45268;-84
2024/01/16 04:37:10;;;;;;;3.67;1.60;;;21.70;23.60;;;;;;4931674;28;45454;-84
2024/01/16 04:39:36;;;;;;;3.03;1.73;;;21.70;23.60;;;;;;4970831;28;46128;-84
2024/01/16 04:42:01;;;;;;;2.78;1.65;;;21.60;23.50;;;;;;4934380;28;45126;-84
2024/01/16 04:44:27;;;;;;;2.63;1.57;;;21.70;23.60;;;;;;4942081;28;45439;-84
2024/01/16 04:46:53;;;;;;;2.87;1.70;;;21.70;23.50;;;;;;4918384;28;44927;-83
2024/01/16 04:49:19;;;;;;;2.28;1.50;;;21.70;23.50;;;;;;4935977;28;46199;-84
2024/01/16 04:51:45;;;;;;;3.15;1.60;;;21.70;23.50;;;;;;4938678;28;45076;-85
2024/01/16 04:54:11;;;;;;;1.75;1.40;;;21.70;23.50;;;;;;4951744;28;44705;-84
2024/01/16 04:56:37;;;;;;;4.68;1.83;;;21.70;23.50;;;;;;4948430;28;45492;-84
2024/01/16 04:59:03;;;;;;;2.90;1.73;;;21.70;23.50;;;;;;4951957;28;45453;-83
2024/01/16 05:01:29;;;;;;;2.67;1.50;;;21.70;23.50;;;;;;4940382;28;45525;-86
2024/01/16 05:03:55;;;;;;;2.47;1.60;;;21.70;23.40;;;;;;4955939;28;45887;-84
2024/01/16 05:06:21;;;;;;;2.28;1.42;;;21.70;23.40;;;;;;4934350;28;46111;-84
2024/01/16 05:08:46;;;;;;;2.50;1.63;;;21.70;23.40;;;;;;4937407;28;45941;-84
2024/01/16 05:11:12;;;;;;;3.03;1.70;;;21.70;23.40;;;;;;4948178;28;44846;-85
2024/01/16 05:13:38;;;;;;;2.73;1.53;;;21.70;23.40;;;;;;4951600;28;45946;-84
2024/01/16 05:16:05;;;;;;;3.60;1.60;;;21.70;23.40;;;;;;4927345;28;45213;-83
2024/01/16 05:18:32;;;;;;;3.50;1.80;;;21.70;23.40;;;;;;4968137;28;46071;-84
2024/01/16 05:20:58;;;;;;;2.38;1.40;;;21.80;23.40;;;;;;4937173;28;45199;-84
2024/01/16 05:23:24;;;;;;;2.30;1.55;;;21.80;23.40;;;;;;4938926;28;45279;-84
2024/01/16 05:25:50;;;;;;;3.67;2.00;;;21.80;23.40;;;;;;4953575;28;44936;-84
2024/01/16 05:28:16;;;;;;;2.55;1.50;;;21.80;23.40;;;;;;4951015;28;46132;-84
2024/01/16 05:30:42;;;;;;;3.33;1.97;;;21.80;23.40;;;;;;4915609;28;46918;-84
2024/01/16 05:33:09;;;;;;;2.42;1.52;;;21.80;23.30;;;;;;4935421;28;45527;-85
2024/01/16 05:35:35;;;;;;;2.70;1.55;;;21.80;23.30;;;;;;4945437;28;45411;-84
2024/01/16 05:38:04;;;;;;;2.87;1.70;;;21.80;23.30;;;;;;4951342;28;66964;-84
2024/01/16 05:40:30;;;;;;;2.40;1.60;;;21.80;23.30;;;;;;4949110;28;45328;-84
2024/01/16 05:42:56;;;;;;;2.93;1.80;;;21.90;23.50;;;;;;4937427;28;45721;-84
2024/01/16 05:45:21;;;;;;;2.78;1.60;;;21.80;23.30;;;;;;4932234;28;45380;-84
2024/01/16 05:47:47;;;;;;;2.50;1.50;;;21.80;23.30;;;;;;4934195;28;46426;-84
2024/01/16 05:50:16;;;;;;;3.25;1.63;;;21.90;23.30;;;;;;4950281;28;45543;-84
2024/01/16 05:52:42;;;;;;;2.40;1.50;;;21.80;23.30;;;;;;4939185;28;45720;-85
2024/01/16 05:55:09;;;;;;;2.30;1.55;;;21.80;23.30;;;;;;4955903;28;45473;-84
2024/01/16 05:57:35;;;;;;;2.60;1.80;;;21.80;23.30;;;;;;4933311;28;47393;-85
2024/01/16 06:00:05;;;;;;;2.40;1.40;;;21.80;23.20;;;;;;4938027;28;45182;-84
2024/01/16 06:02:31;;;;;;;2.13;1.50;;;21.80;23.20;;;;;;4947087;28;45496;-86
2024/01/16 06:04:57;;;;;;;2.60;1.50;;;21.80;23.20;;;;;;4952934;28;46137;-85
2024/01/16 06:07:23;;;;;;;2.80;1.60;;;21.80;23.20;;;;;;4949708;28;45374;-84
2024/01/16 06:09:49;;;;;;;1.70;1.23;;;21.80;23.20;;;;;;4942557;28;46130;-84
2024/01/16 06:12:14;;;;;;;2.10;1.40;;;21.80;23.20;;;;;;4917335;28;45294;-84
2024/01/16 06:14:40;;;;;;;2.88;1.40;;;21.70;23.20;;;;;;4924417;28;45508;-84
2024/01/16 06:17:06;;;;;;;2.13;1.40;;;21.80;23.20;;;;;;4945790;28;46159;-85
2024/01/16 06:19:35;;;;;;;2.60;1.47;;;21.80;23.20;;;;;;4922773;28;45246;-83
2024/01/16 06:22:00;;;;;;;1.80;1.30;;;21.80;23.20;;;;;;4961392;28;45503;-84
2024/01/16 06:24:26;;;;;;;3.20;1.63;;;21.80;23.20;;;;;;4946111;28;44868;-85
2024/01/16 06:26:52;;;;;;;2.00;1.35;;;21.80;23.20;;;;;;4928027;28;45934;-84
2024/01/16 06:29:18;;;;;;;2.97;1.50;;;21.80;23.20;;;;;;4936722;28;45737;-83
2024/01/16 06:31:44;;;;;;;2.07;1.50;;;21.80;23.20;;;;;;4946147;28;45758;-84
2024/01/16 06:34:10;;;;;;;2.80;1.40;;;21.70;23.20;;;;;;4925452;28;44875;-84
2024/01/16 06:36:36;;;;;;;2.47;1.50;;;21.80;23.20;;;;;;4944392;28;47404;-84
2024/01/16 06:39:03;;;;;;;3.17;1.55;;;21.80;23.20;;;;;;4953072;28;45470;-84
2024/01/16 06:41:29;;;;;;;2.38;1.60;;;21.80;23.20;;;;;;4921440;28;45145;-83
2024/01/16 06:43:55;;;;;;;2.05;1.58;;;21.80;23.20;;;;;;4931092;28;45242;-84
2024/01/16 06:46:21;;;;;;;2.50;1.88;;;21.80;23.20;;;;;;4957655;28;45711;-84
2024/01/16 06:48:48;;;;;;;2.33;1.50;;;21.70;23.20;;;;;;4970168;28;45272;-85
2024/01/16 06:51:15;;;;;;;3.10;1.70;;;21.70;23.20;;;;;;4959868;28;45566;-85
2024/01/16 06:53:41;;;;;;;2.55;1.80;;;21.80;23.20;;;;;;4951589;28;46293;-84
2024/01/16 06:56:08;;;;;;;4.22;1.88;;;21.80;23.20;;;;;;4938817;28;45631;-84
2024/01/16 06:58:35;;;;;;;2.42;1.50;;;21.80;23.20;;;;;;4939300;28;45402;-85
2024/01/16 07:01:00;;;;;;;3.07;1.80;;;21.70;23.20;;;;;;4917280;28;46462;-84
2024/01/16 07:03:26;;;;;;;2.50;1.60;;;21.70;23.20;;;;;;4944831;28;45500;-83
2024/01/16 07:05:52;;;;;;;3.53;1.80;;;21.70;23.70;;;;;;4951671;28;45104;-84
2024/01/16 07:08:17;;;;;;;2.92;1.80;;;21.70;23.20;;;;;;4940594;28;45350;-83
2024/01/16 07:10:43;;;;;;;2.58;1.60;;;21.70;23.20;;;;;;4944561;28;45094;-84
2024/01/16 07:13:09;;;;;;;2.38;1.60;;;21.70;23.20;;;;;;4936876;28;45027;-84
2024/01/16 07:15:35;;;;;;;3.25;1.50;;;21.70;23.20;;;;;;4922899;28;46629;-84
2024/01/16 07:18:01;;;;;;;3.08;1.95;;;21.70;23.20;;;;;;4958546;28;45619;-84
2024/01/16 07:20:27;;;;;;;2.73;1.50;;;21.70;23.20;;;;;;4951391;28;45452;-84
2024/01/16 07:22:52;;;;;;;3.93;2.10;;;21.70;23.20;;;;;;4944984;28;45165;-84
2024/01/16 07:25:19;;;;;;;2.60;1.80;;;21.70;23.20;;;;;;4949638;28;46459;-84
2024/01/16 07:27:48;;;;;;;1.88;1.50;;;21.70;23.20;;;;;;4970184;28;45413;-84
2024/01/16 07:30:15;;;;;;;2.72;2.00;;;21.70;23.20;;;;;;4955479;28;45520;-84
2024/01/16 07:32:41;;;;;;;2.97;1.80;;;21.70;23.20;;;;;;4949412;28;45480;-84
2024/01/16 07:35:08;;;;;;;3.15;1.55;;;21.70;23.20;;;;;;4944287;28;46165;-83
2024/01/16 07:37:34;;;;;;;3.35;1.90;;;21.70;23.20;;;;;;4953482;28;45571;-84
2024/01/16 07:40:00;;;;;;;2.65;1.80;;;21.70;23.20;;;;;;4949067;28;45088;-84
2024/01/16 07:42:33;;;;;;;2.40;1.70;;;21.70;23.20;;;;;;4938704;28;44962;-84
2024/01/16 07:45:00;;;;;;;2.60;1.60;;;21.70;23.20;;;;;;4957728;28;46482;-84
2024/01/16 07:47:26;;;;;;;2.75;1.75;;;21.70;23.20;;;;;;4950616;28;44971;-85
2024/01/16 07:49:52;;;;;;;2.85;1.70;;;21.70;23.20;;;;;;4958095;28;44804;-86
2024/01/16 07:52:18;;;;;;;2.83;1.88;;;21.70;23.20;;;;;;4934663;28;44985;-85
2024/01/16 07:54:43;;;;;;;2.67;1.77;;;21.70;23.20;;;;;;4952720;28;45404;-85
2024/01/16 07:57:09;;;;;;;2.10;1.60;;;21.70;23.20;;;;;;4968392;28;45166;-84
2024/01/16 07:59:35;;;;;;;3.00;2.00;;;21.60;23.10;;;;;;4961920;28;44970;-85
2024/01/16 08:02:02;;;;;;;2.70;1.67;;;21.60;23.10;;;;;;4958584;28;45879;-84
2024/01/16 08:04:28;;;;;;;2.58;1.83;;;21.60;23.10;;;;;;4951262;28;47541;-85
2024/01/16 08:06:54;;;;;;;3.65;1.92;;;21.60;23.10;;;;;;4940721;28;45134;-84
2024/01/16 08:09:20;;;;;;;2.57;1.83;;;21.60;23.10;;;;;;4958064;28;44792;-84
2024/01/16 08:11:46;;;;;;;2.63;1.75;;;21.70;23.10;;;;;;4964404;28;44898;-84
2024/01/16 08:14:12;;;;;;;2.97;1.67;;;21.60;23.10;;;;;;4948548;28;45844;-84
2024/01/16 08:16:38;;;;;;;2.97;1.90;;;21.60;23.10;;;;;;4913869;28;45689;-85
2024/01/16 08:19:04;;;;;;;3.50;2.05;;;21.60;23.10;;;;;;4955147;28;45628;-85
2024/01/16 08:21:30;;;;;;;2.97;2.13;;;21.60;23.10;;;;;;4919460;28;45393;-85
2024/01/16 08:23:56;;;;;;;3.10;2.00;;;21.50;23.00;;;;;;4944078;28;46816;-85
2024/01/16 08:26:22;;;;;;;3.17;1.80;;;21.60;23.10;;;;;;4954930;28;45017;-88
2024/01/16 08:28:48;;;;;;;2.37;1.93;;;21.60;23.10;;;;;;4965282;28;45028;-84
2024/01/16 08:31:17;;;;;;;3.33;2.05;;;21.50;23.00;;;;;;4944255;28;45771;-84
2024/01/16 08:33:44;;;;;;;2.42;1.73;;;21.70;23.10;;;;;;4944127;28;45183;-85
2024/01/16 08:36:10;;;;;;;3.17;1.93;;;21.50;23.10;;;;;;4932630;28;45523;-85
2024/01/16 08:38:36;;;;;;;3.30;2.10;;;21.50;23.00;;;;;;4969166;28;44910;-84
2024/01/16 08:41:06;;;;;;;2.85;1.90;;;21.50;23.10;;;;;;4957649;28;45312;-85
2024/01/16 08:43:33;;;;;;;2.73;2.00;;;21.50;23.00;;;;;;4951934;28;45178;-84
2024/01/16 08:45:59;;;;;;;2.95;2.05;;;21.50;23.00;;;;;;4945877;28;45849;-85
2024/01/16 08:48:25;;;;;;;2.97;2.00;;;21.50;23.00;;;;;;4953541;28;45305;-85
2024/01/16 08:50:52;;;;;;;2.45;1.80;;;21.60;23.10;;;;;;4932259;28;45022;-84
2024/01/16 08:53:18;;;;;;;2.83;1.88;;;21.50;23.00;;;;;;4934245;28;46291;-84
2024/01/16 08:55:45;;;;;;;2.80;1.83;;;21.50;23.00;;;;;;4951594;28;46503;-84
2024/01/16 08:58:11;;;;;;;2.67;2.03;;;21.50;23.00;;;;;;4953446;28;45497;-84
2024/01/16 09:00:37;;;;;;;2.72;1.80;;;21.50;23.00;;;;;;4928660;28;45576;-84
2024/01/16 09:03:04;;;;;;;3.15;2.10;;;21.50;23.00;;;;;;4949650;28;46127;-85
2024/01/16 09:05:30;;;;;;;3.75;2.03;;;21.40;23.50;;;;;;4941058;28;45695;-85
2024/01/16 09:07:56;;;;;;;2.78;2.20;;;21.50;23.10;;;;;;4955485;28;45213;-84
2024/01/16 09:10:22;;;;;;;3.50;2.20;;;21.50;23.00;;;;;;4933644;28;45365;-85
2024/01/16 09:12:48;;;;;;;2.70;2.00;;;21.50;23.10;;;;;;4952662;28;46435;-86
2024/01/16 09:15:15;;;;;;;2.70;2.05;;;21.50;23.10;;;;;;4934741;28;45141;-84
2024/01/16 09:17:41;;;;;;;4.18;2.15;;;21.40;23.10;;;;;;4948301;28;44851;-84
2024/01/16 09:20:10;;;;;;;2.92;2.15;;;21.40;23.00;;;;;;4948749;28;45755;-85
2024/01/16 09:22:36;;;;;;;2.57;2.00;;;21.40;23.10;;;;;;4947632;28;46078;-84
2024/01/16 09:25:03;;;;;;;3.03;2.30;;;21.40;23.00;;;;;;4952571;28;45411;-84
2024/01/16 09:27:29;;;;;;;2.83;1.90;;;21.40;23.10;;;;;;4952994;28;44684;-84
2024/01/16 09:29:55;;;;;;;3.10;2.15;;;21.40;23.10;;;;;;4936882;28;45685;-85
2024/01/16 09:32:21;;;;;;;3.47;2.25;;;21.40;23.10;;;;;;4934977;28;46149;-84
2024/01/16 09:34:47;;;;;;;3.87;2.37;;;21.40;23.10;;;;;;4946525;28;44976;-84
2024/01/16 09:37:14;;;;;;;3.35;2.17;;;21.40;23.10;;;;;;4934192;28;45339;-84
2024/01/16 09:39:41;;;;;;;4.23;2.13;;;21.40;23.10;;;;;;4949361;28;45045;-84
2024/01/16 09:42:07;;;;;;;2.83;2.20;;;21.40;23.10;;;;;;4938481;28;46225;-85
2024/01/16 09:44:34;;;;;;;3.00;2.22;;;21.40;23.10;;;;;;4928685;28;45505;-85
2024/01/16 09:47:00;;;;;;;2.93;1.93;;;21.40;23.10;;;;;;4960622;28;45233;-84
2024/01/16 09:49:25;;;;;;;3.08;2.10;;;21.40;23.60;;;;;;4939524;28;46381;-84
2024/01/16 09:51:51;;;;;;;2.83;2.33;;;21.30;23.10;;;;;;4962283;28;46067;-84
2024/01/16 09:54:17;;;;;;;2.73;2.10;;;21.40;23.20;;;;;;4949944;28;45662;-85
2024/01/16 09:56:43;;;;;;;3.10;2.30;;;21.40;23.20;;;;;;4947060;28;45712;-85
2024/01/16 09:59:10;;;;;;;4.18;2.40;;;21.30;23.10;;;;;;4952754;28;45820;-84
2024/01/16 10:01:36;;;;;;;2.97;2.27;;;21.30;23.10;;;;;;4929324;28;45987;-84
2024/01/16 10:04:02;;;;;;;3.38;2.38;;;21.30;23.10;;;;;;4961755;28;44910;-84
2024/01/16 10:06:28;;;;;;;3.33;2.40;;;21.30;23.10;;;;;;4915912;28;45570;-84
2024/01/16 10:08:54;;;;;;;3.17;2.25;;;21.30;23.10;;;;;;4937786;28;45729;-84
2024/01/16 10:11:20;;;;;;;3.40;2.78;;;21.30;23.10;;;;;;4934795;28;46353;-83
2024/01/16 10:13:46;;;;;;;3.17;2.53;;;21.30;23.20;;;;;;4950721;28;45118;-85
2024/01/16 10:16:12;;;;;;;4.05;2.90;;;21.30;23.20;;;;;;4946257;28;45542;-84
2024/01/16 10:18:38;;;;;;;3.88;2.88;;;21.30;23.20;;;;;;4926942;28;44773;-85
2024/01/16 10:21:04;;;;;;;3.20;2.80;;;21.30;23.20;;;;;;4951142;28;45914;-84
2024/01/16 10:23:32;;;;;;;4.43;3.10;;;21.30;23.20;;;;;;4957839;28;44982;-83
2024/01/16 10:26:10;;;;;;;4.87;3.43;;;21.30;23.20;;;;;;4937016;28;45408;-85
2024/01/16 10:28:40;;;;;;;4.95;3.67;;;21.20;23.20;;;;;;4935978;28;45515;-84
2024/01/16 10:31:10;;;;;;;4.63;3.53;;;21.30;23.20;;;;;;4958619;28;45630;-85
2024/01/16 10:33:39;;;;;;;5.93;3.97;;;21.30;23.20;;;;;;4925317;28;45297;-85
2024/01/16 10:36:11;;;;;;;4.20;3.60;;;21.20;23.20;;;;;;4929845;28;45495;-84
2024/01/16 10:38:38;;;;;;;5.25;3.97;;;21.20;23.20;;;;;;4951515;28;45278;-84
2024/01/16 10:41:11;;;;;;;4.35;3.58;;;21.20;23.20;;;;;;4936852;28;45957;-84
2024/01/16 10:43:36;;;;;;;4.68;3.95;;;21.20;23.20;;;;;;4944806;28;45343;-84
2024/01/16 10:46:09;;;;;;;4.30;3.80;;;21.20;23.20;;;;;;4947698;28;45395;-84
2024/01/16 10:48:36;;;;;;;4.15;3.42;;;21.20;23.20;;;;;;4943526;28;45173;-84
2024/01/16 10:51:02;;;;;;;5.00;3.97;;;21.20;23.20;;;;;;4944945;28;46142;-84
2024/01/16 10:53:31;;;;;;;5.17;4.23;;;21.20;23.30;;;;;;4956676;28;45661;-85
2024/01/16 10:55:57;;;;;;;5.63;3.67;;;21.20;23.30;;;;;;4929776;28;45869;-85
2024/01/16 10:58:23;;;;;;;4.90;3.70;;;21.20;23.30;;;;;;4924761;28;45738;-86
2024/01/16 11:00:51;;;;;;;4.60;3.65;;;21.20;23.30;;;;;;4944102;28;45404;-84
2024/01/16 11:03:18;;;;;;;5.30;3.63;;;21.20;23.30;;;;;;4922888;28;45135;-84
2024/01/16 11:05:44;;;;;;;5.57;3.88;;;21.10;23.20;;;;;;4927850;28;45475;-84
2024/01/16 11:08:10;;;;;;;4.95;3.67;;;21.10;23.30;;;;;;4941970;28;45412;-85
2024/01/16 11:10:35;;;;;;;3.97;3.30;;;21.10;23.30;;;;;;4951175;28;47224;-83
2024/01/16 11:13:03;;;;;;;4.03;3.43;;;21.10;23.30;;;;;;4927286;28;45270;-84
2024/01/16 11:15:29;;;;;;;4.90;3.30;;;21.10;23.30;;;;;;4931612;28;45868;-87
2024/01/16 11:17:57;;;;;;;4.00;2.80;;;21.10;23.30;;;;;;4948028;28;45233;-84
2024/01/16 11:20:23;;;;;;;3.92;3.00;;;21.10;23.30;;;;;;4931001;28;46202;-84
2024/01/16 11:22:49;;;;;;;3.92;3.00;;;21.10;23.30;;;;;;4949427;28;45457;-84
2024/01/16 11:25:16;;;;;;;3.75;2.90;;;21.10;23.40;;;;;;4950898;28;45053;-85
2024/01/16 11:27:42;;;;;;;3.65;2.95;;;21.10;23.40;;;;;;4922462;28;45271;-85
2024/01/16 11:30:10;;;;;;;3.65;2.65;;;21.00;23.40;;;;;;4960364;28;46114;-84
2024/01/16 11:32:59;;;;;;;4.10;2.90;;;21.00;23.30;;;;;;4947188;28;44923;-84
2024/01/16 11:35:38;;;;;;;4.15;2.70;;;21.00;23.30;;;;;;4963777;28;45593;-85
2024/01/16 11:38:16;;;;;;;3.70;2.53;;;21.00;23.40;;;;;;4935516;28;45312;-84
2024/01/16 11:40:43;;;;;;;4.53;2.50;;;21.00;23.40;;;;;;4919589;28;46316;-84
2024/01/16 11:43:33;;;;;;;3.92;2.28;;;21.00;23.40;;;;;;4938339;28;45315;-84
2024/01/16 11:46:07;;;;;;;3.88;2.50;;;21.00;23.40;;;;;;4960432;28;45694;-83
2024/01/16 11:48:33;;;;;;;3.25;2.30;;;21.00;23.40;;;;;;4928179;28;45596;-85
2024/01/16 11:50:59;;;;;;;4.07;2.47;;;21.00;23.40;;;;;;4922976;28;47363;-85
2024/01/16 11:53:33;;;;;;;3.28;2.33;;;21.00;23.40;;;;;;4938451;28;45428;-85
2024/01/16 11:56:18;;;;;;;2.92;2.03;;;20.90;23.40;;;;;;4951096;28;45126;-85
2024/01/16 11:59:08;;;;;;;3.70;2.30;;;21.00;23.50;;;;;;4964918;28;45481;-85
2024/01/16 12:01:34;;;;;;;3.83;2.13;;;21.00;23.50;;;;;;4941186;28;46061;-85
2024/01/16 12:04:05;;;;;;;2.70;1.87;;;21.00;23.50;;;;;;4955609;28;45488;-84
2024/01/16 12:06:32;;;;;;;3.47;2.17;;;20.90;23.50;;;;;;4942120;28;45634;-83
2024/01/16 12:09:17;;;;;;;3.30;2.20;;;21.00;23.60;;;;;;4921798;28;45122;-84
2024/01/16 12:11:45;;;;;;;2.60;1.95;;;20.90;23.50;;;;;;4965099;28;45558;-84
2024/01/16 12:14:14;;;;;;;3.10;2.10;;;20.90;23.50;;;;;;4953883;28;45422;-85
2024/01/16 12:16:39;;;;;;;2.70;1.70;;;20.90;23.50;;;;;;4958227;28;45543;-84
2024/01/16 12:19:08;;;;;;;2.80;2.00;;;20.90;23.50;;;;;;4936621;28;45285;-84
2024/01/16 12:21:41;;;;;;;2.10;1.70;;;20.90;23.50;;;;;;4931747;28;45953;-84
2024/01/16 12:24:07;;;;;;;3.83;2.22;;;20.90;23.60;;;;;;4958092;28;46046;-85
2024/01/16 12:26:33;;;;;;;2.15;1.70;;;20.90;23.60;;;;;;4938960;28;46152;-85
2024/01/16 12:28:59;;;;;;;3.00;1.87;;;20.90;23.60;;;;;;4940511;28;44821;-84
2024/01/16 12:31:25;;;;;;;3.30;1.70;;;20.90;23.60;;;;;;4924386;28;46231;-85
2024/01/16 12:33:51;;;;;;;3.17;1.83;;;20.90;23.60;;;;;;4956764;28;45389;-85
2024/01/16 12:36:17;;;;;;;3.50;1.70;;;20.80;23.60;;;;;;4928400;28;45220;-84
2024/01/16 12:38:43;;;;;;;2.95;1.77;;;20.90;23.60;;;;;;4938783;28;45108;-84
2024/01/16 12:41:10;;;;;;;2.35;1.50;;;20.80;23.60;;;;;;4929357;28;46583;-85
2024/01/16 12:43:36;;;;;;;2.50;1.70;;;20.80;23.60;;;;;;4947174;28;46065;-85
2024/01/16 12:46:03;;;;;;;2.75;1.80;;;20.80;23.60;;;;;;4915850;28;44930;-84
2024/01/16 12:48:29;;;;;;;2.50;1.70;;;20.80;23.60;;;;;;4926601;28;45538;-85
2024/01/16 12:51:02;;;;;;;3.10;1.80;;;20.80;23.60;;;;;;4956601;28;45438;-84
2024/01/16 12:53:28;;;;;;;2.45;1.40;;;20.80;23.60;;;;;;4953189;28;45546;-84
2024/01/16 12:56:02;;;;;;;4.20;1.90;;;20.80;23.70;;;;;;4937639;28;45416;-84
2024/01/16 12:58:34;;;;;;;3.17;1.80;;;20.70;23.60;;;;;;4944429;28;45750;-84
2024/01/16 13:01:22;;;;;;;2.47;1.55;;;20.80;23.70;;;;;;4933162;28;46764;-84
2024/01/16 13:03:50;;;;;;;2.50;1.63;;;20.80;23.70;;;;;;4933157;28;45264;-84
2024/01/16 13:06:20;;;;;;;2.30;1.50;;;20.70;23.60;;;;;;4943790;28;45557;-85
2024/01/16 13:08:47;;;;;;;2.08;1.45;;;20.70;23.70;;;;;;4953680;28;45113;-84
2024/01/16 13:11:15;;;;;;;2.50;1.60;;;20.70;23.70;;;;;;4937419;28;46988;-84
2024/01/16 13:13:41;;;;;;;2.33;1.50;;;20.70;23.70;;;;;;4952837;28;45337;-84
2024/01/16 13:16:07;;;;;;;2.55;1.63;;;20.70;23.70;;;;;;4933233;28;45531;-84
2024/01/16 13:18:33;;;;;;;2.90;1.53;;;20.70;23.70;;;;;;4936982;28;45080;-84
2024/01/16 13:20:59;;;;;;;2.55;1.45;;;20.70;23.70;;;;;;4947184;28;46086;-84
2024/01/16 13:23:27;;;;;;;2.67;1.67;;;20.70;23.70;;;;;;4909893;28;44985;-84
2024/01/16 13:26:00;;;;;;;3.20;1.60;;;20.70;23.80;;;;;;4937116;28;45157;-84
2024/01/16 13:28:26;;;;;;;2.08;1.48;;;20.70;23.80;;;;;;4924781;28;45062;-84
2024/01/16 13:30:52;;;;;;;2.53;1.37;;;20.70;23.80;;;;;;4927227;28;46440;-84
2024/01/16 13:33:18;;;;;;;2.05;1.42;;;20.70;23.80;;;;;;4967578;28;45585;-84
2024/01/16 13:35:46;;;;;;;2.50;1.50;;;20.70;23.80;;;;;;4933793;28;45271;-84
2024/01/16 13:38:12;;;;;;;2.92;1.50;;;20.60;23.80;;;;;;4969001;28;45613;-85
2024/01/16 13:40:38;;;;;;;2.30;1.33;;;20.60;23.80;;;;;;4935144;28;46313;-86
2024/01/16 13:43:06;;;;;;;1.70;1.30;;;20.60;23.80;;;;;;4952598;28;45577;-84
2024/01/16 13:45:32;;;;;;;2.28;1.52;;;20.60;23.80;;;;;;4933764;28;45288;-84
2024/01/16 13:47:58;;;;;;;2.50;1.65;;;20.60;23.80;;;;;;4965168;28;45513;-84
2024/01/16 13:50:23;;;;;;;2.10;1.40;;;20.60;23.80;;;;;;4931736;28;46044;-85
2024/01/16 13:52:49;;;;;;;2.33;1.40;;;20.60;23.80;;;;;;4919621;28;45627;-84
2024/01/16 13:55:15;;;;;;;2.10;1.30;;;20.60;23.80;;;;;;4949720;28;45413;-84
2024/01/16 13:57:41;;;;;;;2.35;1.30;;;20.60;23.80;;;;;;4948786;28;45505;-84
2024/01/16 14:00:12;;;;;;;2.17;1.40;;;20.60;23.80;;;;;;4921923;28;47016;-84
2024/01/16 14:02:40;;;;;;;2.72;1.80;;;20.60;23.80;;;;;;4920446;28;45609;-85
2024/01/16 14:05:10;;;;;;;2.63;1.67;;;20.60;23.80;;;;;;4932377;28;45590;-83
2024/01/16 14:07:37;;;;;;;2.60;1.57;;;20.60;23.80;;;;;;4938492;28;45409;-85
2024/01/16 14:10:06;;;;;;;3.50;1.70;;;20.60;23.80;;;;;;4940850;28;45216;-83
2024/01/16 14:12:32;;;;;;;3.47;1.67;;;20.60;23.80;;;;;;4933151;28;45271;-85
2024/01/16 14:15:00;;;;;;;2.88;1.52;;;20.60;23.80;;;;;;4933754;28;45095;-84
2024/01/16 14:17:26;;;;;;;1.88;1.40;;;20.60;23.90;;;;;;4922952;28;46413;-85
2024/01/16 14:19:52;;;;;;;3.40;1.60;;;20.60;23.90;;;;;;4937955;28;46041;-85
2024/01/16 14:22:17;;;;;;;2.67;1.70;;;20.50;23.80;;;;;;4935169;28;45718;-85
2024/01/16 14:24:46;;;;;;;2.37;1.50;;;20.50;23.90;;;;;;4941216;28;45244;-85
2024/01/16 14:27:12;;;;;;;3.23;1.60;;;20.60;23.90;;;;;;4940138;28;46589;-85
2024/01/16 14:29:39;;;;;;;1.85;1.33;;;20.60;23.90;;;;;;4939723;28;47354;-85
2024/01/16 14:32:05;;;;;;;2.73;1.33;;;20.50;24.40;;;;;;4933147;28;45372;-85
2024/01/16 14:34:31;;;;;;;2.42;1.50;;;20.50;23.90;;;;;;4957192;28;44661;-85
2024/01/16 14:36:57;;;;;;;1.80;1.37;;;20.50;23.90;;;;;;4952713;28;45638;-85
2024/01/16 14:39:24;;;;;;;2.30;1.52;;;20.50;23.90;;;;;;4954601;28;46306;-85
2024/01/16 14:41:53;;;;;;;3.20;1.60;;;20.50;23.90;;;;;;4944930;28;45294;-85
2024/01/16 14:44:19;;;;;;;2.63;1.73;;;20.50;23.90;;;;;;4960989;28;44828;-85
2024/01/16 14:46:45;;;;;;;2.10;1.42;;;20.50;23.90;;;;;;4930313;28;46088;-85
2024/01/16 14:49:11;;;;;;;2.30;1.30;;;20.50;23.90;;;;;;4935322;28;46149;-84
2024/01/16 14:51:37;;;;;;;2.80;1.40;;;20.50;23.90;;;;;;4915063;28;45232;-85
2024/01/16 14:54:15;;;;;;;2.38;1.50;;;20.50;24.00;;;;;;4941576;28;45358;-85
2024/01/16 14:56:48;;;;;;;2.35;1.40;;;20.50;24.00;;;;;;4931786;28;45137;-86
2024/01/16 14:59:15;;;;;;;3.25;1.52;;;20.40;23.90;;;;;;4949215;28;48187;-83
2024/01/16 15:01:41;;;;;;;2.33;1.48;;;20.40;23.90;;;;;;4911906;28;44774;-85
2024/01/16 15:04:07;;;;;;;1.90;1.40;;;20.50;24.00;;;;;;4927006;28;45169;-85
2024/01/16 15:06:33;;;;;;;2.15;1.40;;;20.40;24.00;;;;;;4931230;28;45554;-84
2024/01/16 15:08:59;;;;;;;2.15;1.50;;;20.40;24.00;;;;;;4931678;28;45836;-85
2024/01/16 15:11:25;;;;;;;2.30;1.33;;;20.40;24.00;;;;;;4948047;28;45308;-84
2024/01/16 15:13:51;;;;;;;2.83;1.67;;;20.40;24.00;;;;;;4922812;28;45220;-84
2024/01/16 15:16:18;;;;;;;3.05;1.42;;;20.40;24.00;;;;;;4942574;28;45444;-85
2024/01/16 15:18:43;;;;;;;2.63;1.73;;;20.40;24.00;;;;;;4936210;28;46253;-85
2024/01/16 15:21:10;;;;;;;2.43;1.60;;;20.40;24.10;;;;;;4901353;28;44771;-83
2024/01/16 15:23:36;;;;;;;3.42;1.63;;;20.40;24.10;;;;;;4936452;28;45475;-85
2024/01/16 15:26:03;;;;;;;2.58;1.73;;;20.40;24.60;;;;;;4916937;28;45190;-85
2024/01/16 15:28:30;;;;;;;2.63;1.53;;;20.40;24.10;;;;;;4953468;28;46260;-84
2024/01/16 15:30:57;;;;;;;2.08;1.42;;;20.30;24.10;;;;;;4917429;28;45277;-85
2024/01/16 15:33:23;;;;;;;3.27;1.57;;;20.40;24.10;;;;;;4941457;28;45629;-84
2024/01/16 15:35:48;;;;;;;2.50;1.67;;;20.40;24.10;;;;;;4934585;28;45415;-84
2024/01/16 15:38:14;;;;;;;2.50;1.50;;;20.40;24.20;;;;;;4951932;28;45563;-84
2024/01/16 15:40:39;;;;;;;2.78;1.80;;;20.40;24.20;;;;;;4919858;28;46523;-85
2024/01/16 15:43:05;;;;;;;2.33;1.70;;;20.40;24.20;;;;;;4925768;28;44731;-85
2024/01/16 15:45:31;;;;;;;2.78;1.55;;;20.40;24.20;;;;;;4912509;28;45062;-83
2024/01/16 15:47:57;;;;;;;3.57;1.77;;;20.40;24.20;;;;;;4935922;28;45644;-85
2024/01/16 15:50:23;;;;;;;3.53;1.57;;;20.40;24.20;;;;;;4966702;28;45335;-84
2024/01/16 15:52:51;;;;;;;2.70;1.67;;;20.40;24.20;;;;;;4951135;28;44982;-85
2024/01/16 15:55:17;;;;;;;3.00;1.60;;;20.40;24.20;;;;;;4951547;28;45315;-84
2024/01/16 15:57:44;;;;;;;3.22;1.70;;;20.40;24.20;;;;;;4967148;28;46305;-84
2024/01/16 16:00:10;;;;;;;2.53;1.70;;;20.40;24.30;;;;;;4930374;28;45769;-85
2024/01/16 16:02:37;;;;;;;3.03;1.80;;;20.40;24.30;;;;;;4949038;28;45699;-85
2024/01/16 16:05:03;;;;;;;3.40;1.80;;;20.50;24.30;;;;;;4905582;28;45866;-84
2024/01/16 16:07:29;;;;;;;2.22;1.50;;;20.40;24.30;;;;;;4964555;28;45978;-85
2024/01/16 16:09:54;;;;;;;3.42;1.80;;;20.40;24.30;;;;;;4938582;28;45431;-83
2024/01/16 16:12:20;;;;;;;2.65;1.52;;;20.50;24.30;;;;;;4929872;28;45285;-85
2024/01/16 16:14:46;;;;;;;3.00;1.70;;;20.40;24.20;;;;;;4938020;28;44709;-85
2024/01/16 16:17:12;;;;;;;2.42;1.40;;;20.50;24.20;;;;;;4931722;28;46245;-85
2024/01/16 16:19:38;;;;;;;2.53;1.67;;;20.40;24.20;;;;;;4937850;28;44964;-85
2024/01/16 16:22:04;;;;;;;2.67;1.80;;;20.50;24.20;;;;;;4929680;28;45899;-84
2024/01/16 16:24:31;;;;;;;3.08;1.73;;;20.50;24.20;;;;;;4941584;28;45225;-85
2024/01/16 16:26:59;;;;;;;2.60;2.00;;;20.50;24.20;;;;;;4937724;28;46203;-85
2024/01/16 16:29:26;;;;;;;2.75;1.85;;;20.50;24.20;;;;;;4937817;28;45381;-85
2024/01/16 16:31:52;;;;;;;3.22;2.13;;;20.50;24.20;;;;;;4941498;28;45491;-85
2024/01/16 16:34:18;;;;;;;2.88;1.90;;;20.50;24.20;;;;;;4948729;28;45525;-85
2024/01/16 16:36:44;;;;;;;3.78;2.40;;;20.60;24.20;;;;;;4948936;28;46540;-84
2024/01/16 16:39:12;;;;;;;2.83;1.98;;;20.60;24.20;;;;;;4939829;28;45407;-84
2024/01/16 16:41:40;;;;;;;3.38;2.25;;;20.60;24.10;;;;;;4931104;28;45305;-83
2024/01/16 16:44:06;;;;;;;4.00;2.30;;;20.70;24.20;;;;;;4921132;28;44825;-84
2024/01/16 16:46:31;;;;;;;4.00;2.20;;;20.60;24.10;;;;;;4912513;28;45484;-85
2024/01/16 16:48:58;;;;;;;3.27;2.10;;;20.60;24.10;;;;;;4967878;28;44923;-85